sensor_id;sensor_type;location;lat;lon;timestamp;pressure;altitude;pressure_sealevel;temperature;humidity
21588;BME280;10956;48.878;13.316;2023-03-03T00:01:01;94165.94;;;1.59;100.00
21588;BME280;10956;48.878;13.316;2023-03-03T00:03:27;94160.16;;;1.57;100.00
21588;BME280;10956;48.878;13.316;2023-03-03T00:05:53;94165.34;;;1.57;100.00
21588;BME280;10956;48.878;13.316;2023-03-03T00:08:19;94165.34;;;1.57;100.00
21588;BME280;10956;48.878;13.316;2023-03-03T00:10:45;94167.34;;;1.55;100.00
21588;BME280;10956;48.878;13.316;2023-03-03T00:13:14;94170.97;;;1.54;100.00
21588;BME280;10956;48.878;13.316;2023-03-03T00:15:40;94164.19;;;1.53;100.00
21588;BME280;10956;48.878;13.316;2023-03-03T00:18:18;94166.19;;;1.51;100.00
21588;BME280;10956;48.878;13.316;2023-03-03T00:20:58;94167.78;;;1.52;100.00
21588;BME280;10956;48.878;13.316;2023-03-03T00:23:34;94175.56;;;1.52;100.00
21588;BME280;10956;48.878;13.316;2023-03-03T00:26:00;94165.81;;;1.48;100.00
21588;BME280;10956;48.878;13.316;2023-03-03T00:28:31;94170.63;;;1.44;100.00
21588;BME280;10956;48.878;13.316;2023-03-03T00:31:14;94165.44;;;1.44;100.00
21588;BME280;10956;48.878;13.316;2023-03-03T00:33:48;94174.22;;;1.43;100.00
21588;BME280;10956;48.878;13.316;2023-03-03T00:38:41;94178.22;;;1.46;100.00
21588;BME280;10956;48.878;13.316;2023-03-03T00:41:22;94177.41;;;1.45;100.00
21588;BME280;10956;48.878;13.316;2023-03-03T00:43:48;94171.44;;;1.45;100.00
21588;BME280;10956;48.878;13.316;2023-03-03T00:46:17;94180.84;;;1.39;100.00
21588;BME280;10956;48.878;13.316;2023-03-03T00:48:44;94173.66;;;1.41;100.00
21588;BME280;10956;48.878;13.316;2023-03-03T00:51:36;94173.81;;;1.46;100.00
21588;BME280;10956;48.878;13.316;2023-03-03T00:54:01;94173.03;;;1.46;100.00
21588;BME280;10956;48.878;13.316;2023-03-03T00:56:26;94172.81;;;1.47;100.00
21588;BME280;10956;48.878;13.316;2023-03-03T00:58:52;94168.63;;;1.46;100.00
21588;BME280;10956;48.878;13.316;2023-03-03T01:01:18;94167.03;;;1.45;100.00
21588;BME280;10956;48.878;13.316;2023-03-03T01:03:44;94163.84;;;1.43;100.00
21588;BME280;10956;48.878;13.316;2023-03-03T01:06:10;94162.25;;;1.42;100.00
21588;BME280;10956;48.878;13.316;2023-03-03T01:08:36;94161.09;;;1.38;100.00
21588;BME280;10956;48.878;13.316;2023-03-03T01:11:19;94163.34;;;1.28;100.00
21588;BME280;10956;48.878;13.316;2023-03-03T01:13:47;94164.00;;;1.17;100.00
21588;BME280;10956;48.878;13.316;2023-03-03T01:16:13;94160.44;;;1.11;100.00
21588;BME280;10956;48.878;13.316;2023-03-03T01:18:39;94160.44;;;1.11;100.00
21588;BME280;10956;48.878;13.316;2023-03-03T01:21:06;94159.06;;;1.09;100.00
21588;BME280;10956;48.878;13.316;2023-03-03T01:23:32;94160.66;;;1.10;100.00
21588;BME280;10956;48.878;13.316;2023-03-03T01:25:58;94169.63;;;1.14;100.00
21588;BME280;10956;48.878;13.316;2023-03-03T01:28:23;94162.81;;;1.13;100.00
21588;BME280;10956;48.878;13.316;2023-03-03T01:30:48;94163.66;;;1.07;100.00
21588;BME280;10956;48.878;13.316;2023-03-03T01:33:15;94155.72;;;1.02;100.00
21588;BME280;10956;48.878;13.316;2023-03-03T01:35:44;94154.16;;;0.94;100.00
21588;BME280;10956;48.878;13.316;2023-03-03T01:38:11;94153.34;;;0.93;100.00
21588;BME280;10956;48.878;13.316;2023-03-03T01:40:37;94150.13;;;0.98;100.00
21588;BME280;10956;48.878;13.316;2023-03-03T01:43:02;94154.13;;;1.01;100.00
21588;BME280;10956;48.878;13.316;2023-03-03T01:45:31;94154.06;;;1.07;100.00
21588;BME280;10956;48.878;13.316;2023-03-03T01:48:09;94149.94;;;1.00;100.00
21588;BME280;10956;48.878;13.316;2023-03-03T01:50:45;94157.34;;;0.96;100.00
21588;BME280;10956;48.878;13.316;2023-03-03T01:53:20;94152.94;;;0.96;100.00
21588;BME280;10956;48.878;13.316;2023-03-03T01:55:47;94160.94;;;0.95;100.00
21588;BME280;10956;48.878;13.316;2023-03-03T01:58:18;94153.94;;;0.95;100.00
21588;BME280;10956;48.878;13.316;2023-03-03T02:00:50;94152.56;;;0.93;100.00
21588;BME280;10956;48.878;13.316;2023-03-03T02:03:19;94152.56;;;0.93;100.00
21588;BME280;10956;48.878;13.316;2023-03-03T02:05:45;94153.72;;;0.97;100.00
21588;BME280;10956;48.878;13.316;2023-03-03T02:08:15;94145.75;;;0.99;100.00
21588;BME280;10956;48.878;13.316;2023-03-03T02:10:44;94142.97;;;0.93;100.00
21588;BME280;10956;48.878;13.316;2023-03-03T02:13:10;94151.97;;;0.91;100.00
21588;BME280;10956;48.878;13.316;2023-03-03T02:15:35;94153.75;;;0.90;100.00
21588;BME280;10956;48.878;13.316;2023-03-03T02:18:08;94141.38;;;0.92;100.00
21588;BME280;10956;48.878;13.316;2023-03-03T02:23:28;94151.75;;;0.92;100.00
21588;BME280;10956;48.878;13.316;2023-03-03T02:28:26;94161.38;;;0.85;100.00
21588;BME280;10956;48.878;13.316;2023-03-03T02:30:54;94156.19;;;0.85;100.00
21588;BME280;10956;48.878;13.316;2023-03-03T02:33:20;94159.41;;;0.81;100.00
21588;BME280;10956;48.878;13.316;2023-03-03T02:35:45;94153.81;;;0.77;100.00
21588;BME280;10956;48.878;13.316;2023-03-03T02:40:44;94146.28;;;0.69;100.00
21588;BME280;10956;48.878;13.316;2023-03-03T02:43:14;94154.47;;;0.66;100.00
21588;BME280;10956;48.878;13.316;2023-03-03T02:45:42;94155.28;;;0.60;100.00
21588;BME280;10956;48.878;13.316;2023-03-03T02:48:07;94156.69;;;0.56;100.00
21588;BME280;10956;48.878;13.316;2023-03-03T02:50:32;94153.50;;;0.54;100.00
21588;BME280;10956;48.878;13.316;2023-03-03T02:52:58;94155.09;;;0.55;100.00
21588;BME280;10956;48.878;13.316;2023-03-03T02:55:23;94158.69;;;0.54;100.00
21588;BME280;10956;48.878;13.316;2023-03-03T02:57:49;94163.88;;;0.54;100.00
21588;BME280;10956;48.878;13.316;2023-03-03T03:00:14;94165.88;;;0.52;100.00
21588;BME280;10956;48.878;13.316;2023-03-03T03:02:39;94160.31;;;0.48;100.00
21588;BME280;10956;48.878;13.316;2023-03-03T03:05:05;94149.75;;;0.50;100.00
21588;BME280;10956;48.878;13.316;2023-03-03T03:07:33;94157.72;;;0.48;100.00
21588;BME280;10956;48.878;13.316;2023-03-03T03:09:58;94157.50;;;0.50;100.00
21588;BME280;10956;48.878;13.316;2023-03-03T03:12:23;94157.91;;;0.53;100.00
21588;BME280;10956;48.878;13.316;2023-03-03T03:14:49;94159.09;;;0.57;100.00
21588;BME280;10956;48.878;13.316;2023-03-03T03:17:14;94156.69;;;0.56;100.00
21588;BME280;10956;48.878;13.316;2023-03-03T03:19:40;94165.47;;;0.55;100.00
21588;BME280;10956;48.878;13.316;2023-03-03T03:22:05;94163.88;;;0.54;100.00
21588;BME280;10956;48.878;13.316;2023-03-03T03:24:31;94167.47;;;0.53;100.00
21588;BME280;10956;48.878;13.316;2023-03-03T03:26:56;94159.50;;;0.54;100.00
21588;BME280;10956;48.878;13.316;2023-03-03T03:29:21;94163.88;;;0.54;100.00
21588;BME280;10956;48.878;13.316;2023-03-03T03:31:47;94157.09;;;0.53;100.00
21588;BME280;10956;48.878;13.316;2023-03-03T03:34:12;94160.28;;;0.55;100.00
21588;BME280;10956;48.878;13.316;2023-03-03T03:36:37;94171.47;;;0.55;100.00
21588;BME280;10956;48.878;13.316;2023-03-03T03:39:04;94164.28;;;0.51;100.00
21588;BME280;10956;48.878;13.316;2023-03-03T03:41:31;94166.28;;;0.49;100.00
21588;BME280;10956;48.878;13.316;2023-03-03T03:43:56;94167.50;;;0.46;100.00
21588;BME280;10956;48.878;13.316;2023-03-03T03:46:22;94169.28;;;0.46;100.00
21588;BME280;10956;48.878;13.316;2023-03-03T03:48:47;94169.69;;;0.43;100.00
21588;BME280;10956;48.878;13.316;2023-03-03T03:51:12;94169.50;;;0.38;100.00
21588;BME280;10956;48.878;13.316;2023-03-03T03:53:38;94162.16;;;0.35;100.00
21588;BME280;10956;48.878;13.316;2023-03-03T03:56:04;94166.31;;;0.36;100.00
21588;BME280;10956;48.878;13.316;2023-03-03T03:58:29;94172.31;;;0.36;100.00
21588;BME280;10956;48.878;13.316;2023-03-03T04:00:59;94162.75;;;0.37;100.00
21588;BME280;10956;48.878;13.316;2023-03-03T04:03:25;94165.16;;;0.31;100.00
21588;BME280;10956;48.878;13.316;2023-03-03T04:05:51;94167.34;;;0.21;100.00
21588;BME280;10956;48.878;13.316;2023-03-03T04:08:17;94166.38;;;0.09;100.00
21588;BME280;10956;48.878;13.316;2023-03-03T04:10:43;94148.44;;;0.08;100.00
21588;BME280;10956;48.878;13.316;2023-03-03T04:13:08;94164.38;;;0.11;100.00
21588;BME280;10956;48.878;13.316;2023-03-03T04:15:33;94164.78;;;0.08;100.00
21588;BME280;10956;48.878;13.316;2023-03-03T04:17:59;94173.56;;;0.07;100.00
21588;BME280;10956;48.878;13.316;2023-03-03T04:20:25;94167.59;;;0.00;100.00
21588;BME280;10956;48.878;13.316;2023-03-03T04:22:50;94171.19;;;-0.01;100.00
21588;BME280;10956;48.878;13.316;2023-03-03T04:25:16;94171.16;;;0.06;100.00
21588;BME280;10956;48.878;13.316;2023-03-03T04:27:42;94167.38;;;0.08;100.00
21588;BME280;10956;48.878;13.316;2023-03-03T04:30:08;94165.56;;;0.15;100.00
21588;BME280;10956;48.878;13.316;2023-03-03T04:32:34;94166.94;;;0.24;100.00
21588;BME280;10956;48.878;13.316;2023-03-03T04:34:59;94161.56;;;0.32;100.00
21588;BME280;10956;48.878;13.316;2023-03-03T04:37:25;94160.75;;;0.32;100.00
21588;BME280;10956;48.878;13.316;2023-03-03T04:39:50;94168.72;;;0.30;100.00
21588;BME280;10956;48.878;13.316;2023-03-03T04:42:16;94166.31;;;0.36;100.00
21588;BME280;10956;48.878;13.316;2023-03-03T04:44:41;94165.94;;;0.39;100.00
21588;BME280;10956;48.878;13.316;2023-03-03T04:47:07;94169.50;;;0.38;100.00
21588;BME280;10956;48.878;13.316;2023-03-03T04:49:32;94173.09;;;0.43;100.00
21588;BME280;10956;48.878;13.316;2023-03-03T04:51:58;94178.25;;;0.50;100.00
21588;BME280;10956;48.878;13.316;2023-03-03T04:54:23;94179.84;;;0.51;100.00
21588;BME280;10956;48.878;13.316;2023-03-03T04:56:48;94181.84;;;0.55;100.00
21588;BME280;10956;48.878;13.316;2023-03-03T04:59:14;94182.63;;;0.56;100.00
21588;BME280;10956;48.878;13.316;2023-03-03T05:01:39;94187.41;;;0.59;100.00
21588;BME280;10956;48.878;13.316;2023-03-03T05:04:06;94184.59;;;0.60;100.00
21588;BME280;10956;48.878;13.316;2023-03-03T05:06:31;94179.44;;;0.54;100.00
21588;BME280;10956;48.878;13.316;2023-03-03T05:08:56;94183.44;;;0.50;100.00
21588;BME280;10956;48.878;13.316;2023-03-03T05:11:22;94197.41;;;0.49;100.00
21588;BME280;10956;48.878;13.316;2023-03-03T05:13:47;94195.81;;;0.48;100.00
21588;BME280;10956;48.878;13.316;2023-03-03T05:16:12;94192.81;;;0.44;100.00
21588;BME280;10956;48.878;13.316;2023-03-03T05:18:38;94197.41;;;0.49;100.00
21588;BME280;10956;48.878;13.316;2023-03-03T05:21:04;94202.59;;;0.49;100.00
21588;BME280;10956;48.878;13.316;2023-03-03T05:23:29;94198.81;;;0.45;100.00
21588;BME280;10956;48.878;13.316;2023-03-03T05:25:55;94206.00;;;0.43;100.00
21588;BME280;10956;48.878;13.316;2023-03-03T05:28:21;94200.22;;;0.41;100.00
21588;BME280;10956;48.878;13.316;2023-03-03T05:30:46;94209.78;;;0.47;100.00
21588;BME280;10956;48.878;13.316;2023-03-03T05:33:13;94213.56;;;0.51;100.00
21588;BME280;10956;48.878;13.316;2023-03-03T05:35:39;94212.56;;;0.52;100.00
21588;BME280;10956;48.878;13.316;2023-03-03T05:38:04;94208.56;;;0.56;100.00
21588;BME280;10956;48.878;13.316;2023-03-03T05:40:30;94211.34;;;0.61;100.00
21588;BME280;10956;48.878;13.316;2023-03-03T05:42:56;94224.50;;;0.66;100.00
21588;BME280;10956;48.878;13.316;2023-03-03T05:45:22;94222.47;;;0.75;100.00
21588;BME280;10956;48.878;13.316;2023-03-03T05:47:49;94226.03;;;0.80;100.00
21588;BME280;10956;48.878;13.316;2023-03-03T05:50:15;94232.00;;;0.87;100.00
21588;BME280;10956;48.878;13.316;2023-03-03T05:52:41;94221.41;;;0.95;100.00
21588;BME280;10956;48.878;13.316;2023-03-03T05:55:07;94219.56;;;1.03;100.00
21588;BME280;10956;48.878;13.316;2023-03-03T05:57:33;94227.53;;;1.08;100.00
21588;BME280;10956;48.878;13.316;2023-03-03T06:00:00;94227.91;;;1.11;100.00
21588;BME280;10956;48.878;13.316;2023-03-03T06:02:26;94224.72;;;1.16;100.00
21588;BME280;10956;48.878;13.316;2023-03-03T06:04:51;94229.28;;;1.20;100.00
21588;BME280;10956;48.878;13.316;2023-03-03T06:07:16;94232.84;;;1.26;100.00
21588;BME280;10956;48.878;13.316;2023-03-03T06:09:42;94231.44;;;1.30;100.00
21588;BME280;10956;48.878;13.316;2023-03-03T06:12:07;94235.00;;;1.36;100.00
21588;BME280;10956;48.878;13.316;2023-03-03T06:14:33;94240.16;;;1.42;100.00
21588;BME280;10956;48.878;13.316;2023-03-03T06:16:58;94239.31;;;1.48;100.00
21588;BME280;10956;48.878;13.316;2023-03-03T06:19:24;94234.88;;;1.55;100.00
21588;BME280;10956;48.878;13.316;2023-03-03T06:21:49;94235.47;;;1.57;100.00
21588;BME280;10956;48.878;13.316;2023-03-03T06:24:15;94242.44;;;1.64;100.00
21588;BME280;10956;48.878;13.316;2023-03-03T06:26:40;94243.78;;;1.73;100.00
21588;BME280;10956;48.878;13.316;2023-03-03T06:29:06;94243.53;;;1.81;100.00
21588;BME280;10956;48.878;13.316;2023-03-03T06:31:31;94244.28;;;1.88;100.00
21588;BME280;10956;48.878;13.316;2023-03-03T06:33:57;94247.81;;;1.93;100.00
21588;BME280;10956;48.878;13.316;2023-03-03T06:36:23;94245.38;;;1.99;100.00
21588;BME280;10956;48.878;13.316;2023-03-03T06:38:49;94252.56;;;2.03;100.00
21588;BME280;10956;48.878;13.316;2023-03-03T06:41:15;94251.91;;;2.08;100.00
21588;BME280;10956;48.878;13.316;2023-03-03T06:43:41;94254.09;;;2.11;100.00
21588;BME280;10956;48.878;13.316;2023-03-03T06:46:06;94250.13;;;2.08;100.00
21588;BME280;10956;48.878;13.316;2023-03-03T06:48:32;94258.56;;;2.04;100.00
21588;BME280;10956;48.878;13.316;2023-03-03T06:50:59;94256.59;;;1.99;100.00
21588;BME280;10956;48.878;13.316;2023-03-03T06:53:26;94254.19;;;1.98;100.00
21588;BME280;10956;48.878;13.316;2023-03-03T06:55:53;94263.03;;;1.90;100.00
21588;BME280;10956;48.878;13.316;2023-03-03T06:58:20;94259.47;;;1.84;100.00
21588;BME280;10956;48.878;13.316;2023-03-03T07:00:56;94265.19;;;1.68;100.00
21588;BME280;10956;48.878;13.316;2023-03-03T07:03:24;94274.00;;;1.60;100.00
21588;BME280;10956;48.878;13.316;2023-03-03T07:05:51;94267.66;;;1.56;100.00
21588;BME280;10956;48.878;13.316;2023-03-03T07:08:20;94270.44;;;1.55;100.00
21588;BME280;10956;48.878;13.316;2023-03-03T07:10:46;94275.44;;;1.56;100.00
21588;BME280;10956;48.878;13.316;2023-03-03T07:15:41;94275.59;;;1.61;100.00
21588;BME280;10956;48.878;13.316;2023-03-03T07:20:45;94277.97;;;1.70;100.00
21588;BME280;10956;48.878;13.316;2023-03-03T07:23:22;94267.16;;;1.73;100.00
21588;BME280;10956;48.878;13.316;2023-03-03T07:25:47;94271.50;;;1.79;100.00
21588;BME280;10956;48.878;13.316;2023-03-03T07:28:23;94279.47;;;1.84;100.00
21588;BME280;10956;48.878;13.316;2023-03-03T07:30:49;94287.44;;;1.89;100.00
21588;BME280;10956;48.878;13.316;2023-03-03T07:33:30;94273.03;;;1.93;100.00
21588;BME280;10956;48.878;13.316;2023-03-03T07:36:01;94280.22;;;1.91;100.00
21588;BME280;10956;48.878;13.316;2023-03-03T07:38:44;94282.66;;;1.86;100.00
21588;BME280;10956;48.878;13.316;2023-03-03T07:41:17;94284.09;;;1.82;100.00
21588;BME280;10956;48.878;13.316;2023-03-03T07:43:53;94282.66;;;1.86;100.00
21588;BME280;10956;48.878;13.316;2023-03-03T07:46:29;94283.50;;;1.80;100.00
21588;BME280;10956;48.878;13.316;2023-03-03T07:48:59;94277.50;;;1.79;100.00
21588;BME280;10956;48.878;13.316;2023-03-03T07:51:36;94283.06;;;1.83;100.00
21588;BME280;10956;48.878;13.316;2023-03-03T07:56:52;94301.59;;;1.93;100.00
21588;BME280;10956;48.878;13.316;2023-03-03T07:59:25;94300.19;;;1.97;100.00
21588;BME280;10956;48.878;13.316;2023-03-03T08:01:55;94301.94;;;2.03;100.00
21588;BME280;10956;48.878;13.316;2023-03-03T08:04:49;94294.53;;;2.07;100.00
21588;BME280;10956;48.878;13.316;2023-03-03T08:07:18;94293.88;;;2.11;100.00
21588;BME280;10956;48.878;13.316;2023-03-03T08:10:07;94299.25;;;2.16;100.00
21588;BME280;10956;48.878;13.316;2023-03-03T08:12:49;94297.25;;;2.18;100.00
21588;BME280;10956;48.878;13.316;2023-03-03T08:17:48;94292.03;;;2.18;100.00
21588;BME280;10956;48.878;13.316;2023-03-03T08:20:45;94297.97;;;2.25;100.00
21588;BME280;10956;48.878;13.316;2023-03-03T08:23:13;94302.56;;;2.30;100.00
21588;BME280;10956;48.878;13.316;2023-03-03T08:25:39;94299.31;;;2.35;100.00
21588;BME280;10956;48.878;13.316;2023-03-03T08:28:06;94309.44;;;2.43;100.00
21588;BME280;10956;48.878;13.316;2023-03-03T08:30:32;94299.78;;;2.50;100.00
21588;BME280;10956;48.878;13.316;2023-03-03T08:32:57;94304.13;;;2.56;100.00
21588;BME280;10956;48.878;13.316;2023-03-03T08:35:23;94298.09;;;2.62;100.00
21588;BME280;10956;48.878;13.316;2023-03-03T08:37:48;94295.63;;;2.67;100.00
21588;BME280;10956;48.878;13.316;2023-03-03T08:40:14;94293.19;;;2.72;100.00
21588;BME280;10956;48.878;13.316;2023-03-03T08:42:39;94285.53;;;2.77;100.00
21588;BME280;10956;48.878;13.316;2023-03-03T08:45:05;94291.91;;;2.81;100.00
21588;BME280;10956;48.878;13.316;2023-03-03T08:47:30;94290.03;;;2.88;100.00
21588;BME280;10956;48.878;13.316;2023-03-03T08:49:56;94302.19;;;2.95;100.00
21588;BME280;10956;48.878;13.316;2023-03-03T08:52:21;94309.13;;;3.01;100.00
21588;BME280;10956;48.878;13.316;2023-03-03T08:54:47;94301.47;;;3.06;100.00
21588;BME280;10956;48.878;13.316;2023-03-03T08:57:12;94305.59;;;3.13;100.00
21588;BME280;10956;48.878;13.316;2023-03-03T08:59:37;94305.09;;;3.23;100.00
21588;BME280;10956;48.878;13.316;2023-03-03T09:02:04;94318.25;;;3.28;100.00
21588;BME280;10956;48.878;13.316;2023-03-03T09:04:30;94305.81;;;3.30;100.00
21588;BME280;10956;48.878;13.316;2023-03-03T09:06:55;94305.94;;;3.35;100.00
21588;BME280;10956;48.878;13.316;2023-03-03T09:09:22;94311.88;;;3.42;100.00
21588;BME280;10956;48.878;13.316;2023-03-03T09:11:47;94314.63;;;3.47;100.00
21588;BME280;10956;48.878;13.316;2023-03-03T09:14:15;94314.31;;;3.55;100.00
21588;BME280;10956;48.878;13.316;2023-03-03T09:16:58;94323.88;;;3.62;100.00
21588;BME280;10956;48.878;13.316;2023-03-03T09:19:32;94326.63;;;3.67;100.00
21588;BME280;10956;48.878;13.316;2023-03-03T09:22:10;94321.75;;;3.70;100.00
21588;BME280;10956;48.878;13.316;2023-03-03T09:24:38;94318.63;;;3.80;100.00
21588;BME280;10956;48.878;13.316;2023-03-03T09:27:17;94327.16;;;3.87;100.00
21588;BME280;10956;48.878;13.316;2023-03-03T09:29:43;94328.75;;;3.88;100.00
21588;BME280;10956;48.878;13.316;2023-03-03T09:34:43;94330.25;;;3.96;100.00
21588;BME280;10956;48.878;13.316;2023-03-03T09:39:40;94328.94;;;4.05;100.00
21588;BME280;10956;48.878;13.316;2023-03-03T09:42:40;94325.22;;;4.12;100.00
21588;BME280;10956;48.878;13.316;2023-03-03T09:48:39;94330.69;;;4.22;100.00
21588;BME280;10956;48.878;13.316;2023-03-03T09:53:49;94330.88;;;4.09;100.00
21588;BME280;10956;48.878;13.316;2023-03-03T09:56:29;94329.22;;;4.27;100.00
21588;BME280;10956;48.878;13.316;2023-03-03T10:04:17;94318.94;;;4.55;100.00
21588;BME280;10956;48.878;13.316;2023-03-03T10:09:37;94304.56;;;4.76;100.00
21588;BME280;10956;48.878;13.316;2023-03-03T10:12:27;94299.69;;;4.79;100.00
21588;BME280;10956;48.878;13.316;2023-03-03T10:17:53;94314.31;;;4.92;100.00
21588;BME280;10956;48.878;13.316;2023-03-03T10:31:53;94320.91;;;5.06;97.31
21588;BME280;10956;48.878;13.316;2023-03-03T10:40:10;94308.50;;;5.25;97.29
21588;BME280;10956;48.878;13.316;2023-03-03T10:42:56;94318.50;;;5.28;96.89
21588;BME280;10956;48.878;13.316;2023-03-03T10:45:28;94317.34;;;5.36;97.09
21588;BME280;10956;48.878;13.316;2023-03-03T10:50:52;94307.34;;;5.44;95.97
21588;BME280;10956;48.878;13.316;2023-03-03T10:53:21;94310.19;;;5.43;95.52
21588;BME280;10956;48.878;13.316;2023-03-03T10:56:21;94305.84;;;5.48;95.41
21588;BME280;10956;48.878;13.316;2023-03-03T11:02:10;94299.53;;;5.73;95.18
21588;BME280;10956;48.878;13.316;2023-03-03T11:21:25;94299.94;;;5.93;93.99
21588;BME280;10956;48.878;13.316;2023-03-03T11:30:53;94303.66;;;6.26;94.64
21588;BME280;10956;48.878;13.316;2023-03-03T11:33:11;94294.44;;;6.23;93.39
21588;BME280;10956;48.878;13.316;2023-03-03T11:35:57;94291.13;;;6.28;93.50
21588;BME280;10956;48.878;13.316;2023-03-03T11:41:18;94285.44;;;6.47;92.62
21588;BME280;10956;48.878;13.316;2023-03-03T11:44:03;94280.97;;;6.48;92.07
21588;BME280;10956;48.878;13.316;2023-03-03T11:54:44;94276.53;;;6.65;91.03
21588;BME280;10956;48.878;13.316;2023-03-03T12:00:24;94275.81;;;6.87;90.21
21588;BME280;10956;48.878;13.316;2023-03-03T12:03:10;94283.44;;;6.88;90.10
21588;BME280;10956;48.878;13.316;2023-03-03T12:05:54;94271.75;;;6.96;89.52
21588;BME280;10956;48.878;13.316;2023-03-03T12:08:44;94279.69;;;7.01;89.32
21588;BME280;10956;48.878;13.316;2023-03-03T12:11:25;94280.78;;;7.05;89.59
21588;BME280;10956;48.878;13.316;2023-03-03T12:17:02;94275.72;;;6.98;88.66
21588;BME280;10956;48.878;13.316;2023-03-03T12:19:34;94271.88;;;7.06;89.19
21588;BME280;10956;48.878;13.316;2023-03-03T12:25:43;94263.47;;;7.04;89.28
21588;BME280;10956;48.878;13.316;2023-03-03T12:28:17;94258.38;;;7.14;89.05
21588;BME280;10956;48.878;13.316;2023-03-03T12:39:54;94249.91;;;7.29;91.01
21588;BME280;10956;48.878;13.316;2023-03-03T12:42:11;94252.53;;;7.29;91.43
21588;BME280;10956;48.878;13.316;2023-03-03T12:52:44;94245.38;;;7.24;93.33
21588;BME280;10956;48.878;13.316;2023-03-03T13:01:15;94242.78;;;7.24;94.86
21588;BME280;10956;48.878;13.316;2023-03-03T13:04:04;94242.22;;;7.22;94.69
21588;BME280;10956;48.878;13.316;2023-03-03T13:15:55;94242.09;;;7.34;94.03
21588;BME280;10956;48.878;13.316;2023-03-03T13:18:30;94243.19;;;7.38;92.83
21588;BME280;10956;48.878;13.316;2023-03-03T13:21:04;94237.78;;;7.44;92.55
21588;BME280;10956;48.878;13.316;2023-03-03T13:23:50;94235.22;;;7.50;92.74
21588;BME280;10956;48.878;13.316;2023-03-03T13:26:29;94229.97;;;7.50;93.22
21588;BME280;10956;48.878;13.316;2023-03-03T13:31:54;94233.34;;;7.72;92.71
21588;BME280;10956;48.878;13.316;2023-03-03T13:34:38;94228.59;;;7.69;92.50
21588;BME280;10956;48.878;13.316;2023-03-03T13:37:19;94242.84;;;7.78;92.84
21588;BME280;10956;48.878;13.316;2023-03-03T13:42:43;94233.22;;;7.84;92.78
21588;BME280;10956;48.878;13.316;2023-03-03T13:45:18;94236.09;;;7.82;92.42
21588;BME280;10956;48.878;13.316;2023-03-03T13:50:35;94225.72;;;7.97;92.67
21588;BME280;10956;48.878;13.316;2023-03-03T13:55:52;94222.94;;;8.09;90.54
21588;BME280;10956;48.878;13.316;2023-03-03T14:07:10;94221.16;;;8.79;87.82
21588;BME280;10956;48.878;13.316;2023-03-03T14:20:55;94219.06;;;8.44;87.32
21588;BME280;10956;48.878;13.316;2023-03-03T14:26:16;94210.50;;;8.58;87.14
21588;BME280;10956;48.878;13.316;2023-03-03T14:28:47;94213.09;;;8.53;87.56
21588;BME280;10956;48.878;13.316;2023-03-03T14:31:20;94213.59;;;8.50;88.64
21588;BME280;10956;48.878;13.316;2023-03-03T14:36:40;94210.94;;;8.45;89.65
21588;BME280;10956;48.878;13.316;2023-03-03T14:39:35;94213.59;;;8.50;90.44
21588;BME280;10956;48.878;13.316;2023-03-03T14:42:11;94208.63;;;8.54;90.54
21588;BME280;10956;48.878;13.316;2023-03-03T14:44:52;94209.94;;;8.51;91.07
21588;BME280;10956;48.878;13.316;2023-03-03T14:47:22;94207.91;;;8.63;91.03
21588;BME280;10956;48.878;13.316;2023-03-03T14:49:50;94202.72;;;8.73;90.87
21588;BME280;10956;48.878;13.316;2023-03-03T14:54:46;94208.59;;;8.86;90.38
21588;BME280;10956;48.878;13.316;2023-03-03T14:57:22;94208.09;;;8.94;89.79
21588;BME280;10956;48.878;13.316;2023-03-03T15:05:19;94204.38;;;8.85;89.36
21588;BME280;10956;48.878;13.316;2023-03-03T15:08:09;94204.75;;;8.61;88.71
21588;BME280;10956;48.878;13.316;2023-03-03T15:10:37;94202.53;;;8.43;89.66
21588;BME280;10956;48.878;13.316;2023-03-03T15:16:03;94210.72;;;8.52;90.43
21588;BME280;10956;48.878;13.316;2023-03-03T15:18:30;94211.50;;;8.52;90.20
21588;BME280;10956;48.878;13.316;2023-03-03T15:23:46;94211.47;;;8.47;90.26
21588;BME280;10956;48.878;13.316;2023-03-03T15:26:43;94216.25;;;8.55;89.83
21588;BME280;10956;48.878;13.316;2023-03-03T15:29:17;94212.88;;;8.60;89.15
21588;BME280;10956;48.878;13.316;2023-03-03T15:34:25;94219.44;;;8.57;88.92
21588;BME280;10956;48.878;13.316;2023-03-03T16:04:24;94239.47;;;7.56;93.99
21588;BME280;10956;48.878;13.316;2023-03-03T16:15:33;94247.41;;;7.17;94.78
21588;BME280;10956;48.878;13.316;2023-03-03T16:23:43;94257.00;;;6.90;94.89
21588;BME280;10956;48.878;13.316;2023-03-03T16:29:04;94264.31;;;6.71;95.01
21588;BME280;10956;48.878;13.316;2023-03-03T16:31:46;94264.16;;;6.61;95.10
21588;BME280;10956;48.878;13.316;2023-03-03T16:39:59;94266.53;;;6.29;95.62
21588;BME280;10956;48.878;13.316;2023-03-03T16:42:32;94269.47;;;6.15;95.83
21588;BME280;10956;48.878;13.316;2023-03-03T16:47:52;94275.59;;;5.93;96.47
21588;BME280;10956;48.878;13.316;2023-03-03T16:53:23;94280.66;;;5.71;96.92
21588;BME280;10956;48.878;13.316;2023-03-03T16:58:47;94280.28;;;5.50;97.51
21588;BME280;10956;48.878;13.316;2023-03-03T17:01:29;94283.25;;;5.42;97.89
21588;BME280;10956;48.878;13.316;2023-03-03T17:04:02;94290.66;;;5.34;98.10
21588;BME280;10956;48.878;13.316;2023-03-03T17:06:54;94307.47;;;5.26;98.56
21588;BME280;10956;48.878;13.316;2023-03-03T17:12:41;94309.66;;;5.06;99.34
21588;BME280;10956;48.878;13.316;2023-03-03T17:23:14;94318.28;;;4.71;100.00
21588;BME280;10956;48.878;13.316;2023-03-03T17:31:18;94327.81;;;4.54;100.00
21588;BME280;10956;48.878;13.316;2023-03-03T17:34:00;94333.47;;;4.51;100.00
21588;BME280;10956;48.878;13.316;2023-03-03T17:41:53;94337.66;;;4.52;100.00
21588;BME280;10956;48.878;13.316;2023-03-03T17:44:35;94333.91;;;4.48;100.00